createdAt,value
2022-12-11T00:02:02.256Z,14.00
2022-12-11T00:04:28.972Z,15.65
2022-12-11T00:06:55.535Z,14.73
2022-12-11T00:09:22.643Z,16.73
2022-12-11T00:11:49.344Z,17.92
2022-12-11T00:14:16.068Z,17.08
2022-12-11T00:16:42.717Z,15.18
2022-12-11T00:19:09.428Z,15.95
2022-12-11T00:21:36.110Z,15.52
2022-12-11T00:24:02.794Z,16.27
2022-12-11T00:26:29.573Z,15.48
2022-12-11T00:28:57.080Z,15.57
2022-12-11T00:31:24.148Z,14.98
2022-12-11T00:33:51.447Z,13.55
2022-12-11T00:36:21.264Z,13.85
2022-12-11T00:38:48.863Z,14.45
2022-12-11T00:41:16.526Z,14.30
2022-12-11T00:43:43.276Z,14.75
2022-12-11T00:46:11.137Z,14.35
2022-12-11T00:48:38.426Z,15.20
2022-12-11T00:51:05.767Z,15.32
2022-12-11T00:53:32.448Z,15.15
2022-12-11T00:55:59.059Z,15.75
2022-12-11T00:58:25.640Z,16.67
2022-12-11T01:00:53.253Z,16.48
2022-12-11T01:03:20.027Z,15.68
2022-12-11T01:05:54.324Z,18.02
2022-12-11T01:08:21.418Z,18.98
2022-12-11T01:10:48.145Z,18.80
2022-12-11T01:13:15.735Z,16.83
2022-12-11T01:15:44.808Z,17.08
2022-12-11T01:18:13.516Z,16.17
2022-12-11T01:20:43.224Z,19.27
2022-12-11T01:23:13.908Z,16.00
2022-12-11T01:25:41.256Z,15.80
2022-12-11T01:28:09.068Z,21.17
2022-12-11T01:30:36.688Z,20.13
2022-12-11T01:33:03.658Z,22.73
2022-12-11T01:35:30.320Z,22.25
2022-12-11T01:37:56.999Z,21.80
2022-12-11T01:40:23.623Z,22.52
2022-12-11T01:42:50.233Z,23.75
2022-12-11T01:45:33.317Z,24.08
2022-12-11T01:48:05.423Z,23.35
2022-12-11T01:50:36.179Z,20.70
2022-12-11T01:53:06.487Z,22.98
2022-12-11T01:55:34.242Z,22.67
2022-12-11T01:58:02.320Z,24.02
2022-12-11T02:00:28.905Z,23.83
2022-12-11T02:02:55.556Z,22.50
2022-12-11T02:05:22.212Z,25.02
2022-12-11T02:07:54.212Z,23.02
2022-12-11T02:10:24.521Z,22.30
2022-12-11T02:13:04.783Z,25.30
2022-12-11T02:15:39.700Z,25.65
2022-12-11T02:18:25.486Z,24.27
2022-12-11T02:21:13.433Z,23.63
2022-12-11T02:24:12.173Z,22.75
2022-12-11T02:27:20.070Z,23.83
2022-12-11T02:30:03.158Z,20.92
2022-12-11T02:32:51.800Z,25.92
2022-12-11T02:35:24.628Z,25.38
2022-12-11T02:37:57.765Z,22.17
2022-12-11T02:40:28.468Z,26.35
2022-12-11T02:42:58.041Z,25.90
2022-12-11T02:45:26.321Z,23.98
2022-12-11T02:47:53.042Z,26.67
2022-12-11T02:50:23.513Z,24.45
2022-12-11T02:52:54.093Z,23.55
2022-12-11T02:55:20.848Z,26.05
2022-12-11T02:58:03.270Z,23.15
2022-12-11T03:00:30.959Z,26.00
2022-12-11T03:02:58.050Z,23.77
2022-12-11T03:05:24.774Z,24.77
2022-12-11T03:07:51.438Z,21.80
2022-12-11T03:10:19.872Z,23.98
2022-12-11T03:12:53.379Z,22.17
2022-12-11T03:15:24.061Z,20.95
2022-12-11T03:18:09.822Z,21.02
2022-12-11T03:20:45.608Z,21.23
2022-12-11T03:23:39.472Z,18.95
2022-12-11T03:26:10.632Z,18.90
2022-12-11T03:28:47.160Z,19.02
2022-12-11T03:31:23.199Z,21.23
2022-12-11T03:33:54.395Z,24.75
2022-12-11T03:36:27.426Z,24.67
2022-12-11T03:39:02.017Z,26.05
2022-12-11T03:41:32.761Z,25.02
2022-12-11T03:43:59.419Z,25.08
2022-12-11T03:46:33.286Z,25.15
2022-12-11T03:49:07.465Z,24.67
2022-12-11T03:51:35.578Z,27.00
2022-12-11T03:54:02.726Z,26.92
2022-12-11T03:56:32.499Z,27.40
2022-12-11T03:58:59.094Z,26.67
2022-12-11T04:01:25.743Z,27.00
2022-12-11T04:03:52.395Z,28.65
2022-12-11T04:06:19.193Z,29.33
2022-12-11T04:08:45.793Z,29.92
2022-12-11T04:11:31.175Z,29.85
2022-12-11T04:14:16.228Z,27.58
2022-12-11T04:16:42.829Z,28.92
2022-12-11T04:19:30.380Z,27.48
2022-12-11T04:22:15.667Z,27.83
2022-12-11T04:24:42.286Z,27.92
2022-12-11T04:27:09.029Z,27.83
2022-12-11T04:29:35.676Z,28.20
2022-12-11T04:32:02.283Z,29.55
2022-12-11T04:34:29.086Z,29.10
2022-12-11T04:36:55.712Z,28.60
2022-12-11T04:39:22.318Z,29.08
2022-12-11T04:41:48.889Z,29.83
2022-12-11T04:44:15.484Z,28.20
2022-12-11T04:46:42.140Z,29.80
2022-12-11T04:49:10.039Z,25.98
2022-12-11T04:51:36.724Z,28.15
2022-12-11T04:54:03.365Z,27.27
2022-12-11T04:56:29.928Z,27.48
2022-12-11T04:58:56.526Z,26.85
2022-12-11T05:01:23.411Z,27.92
2022-12-11T05:03:50.397Z,28.27
2022-12-11T05:06:17.224Z,23.83
2022-12-11T05:08:45.126Z,25.08
2022-12-11T05:11:14.831Z,27.13
2022-12-11T05:13:42.200Z,25.50
2022-12-11T05:16:10.591Z,24.45
2022-12-11T05:18:37.461Z,26.92
2022-12-11T05:21:07.485Z,25.52
2022-12-11T05:23:34.730Z,24.13
2022-12-11T05:26:07.161Z,22.98
2022-12-11T05:31:22.730Z,21.02
2022-12-11T05:33:50.387Z,19.73
2022-12-11T05:36:23.239Z,21.55
2022-12-11T05:38:50.125Z,21.90
2022-12-11T05:41:19.612Z,18.00
2022-12-11T05:43:46.296Z,20.27
2022-12-11T05:46:15.971Z,21.88
2022-12-11T05:48:43.908Z,19.88
2022-12-11T05:51:11.188Z,21.45
2022-12-11T05:53:39.243Z,22.02
2022-12-11T05:56:14.644Z,21.13
2022-12-11T05:58:41.914Z,21.55
2022-12-11T06:01:14.589Z,20.55
2022-12-11T06:03:41.565Z,22.92
2022-12-11T06:06:08.655Z,21.98
2022-12-11T06:08:35.590Z,23.38
2022-12-11T06:11:03.301Z,23.15
2022-12-11T06:13:30.223Z,24.13
2022-12-11T06:16:04.274Z,22.65
2022-12-11T06:18:31.728Z,21.70
2022-12-11T06:20:58.451Z,22.13
2022-12-11T06:23:25.081Z,23.75
2022-12-11T06:25:51.706Z,22.45
2022-12-11T06:28:18.301Z,25.65
2022-12-11T06:30:45.119Z,21.52
2022-12-11T06:33:11.726Z,22.40
2022-12-11T06:35:42.071Z,20.80
2022-12-11T06:38:10.747Z,20.30
2022-12-11T06:40:37.757Z,21.27
2022-12-11T06:43:04.339Z,19.08
2022-12-11T06:45:31.042Z,19.35
2022-12-11T06:47:58.710Z,22.08
2022-12-11T06:50:25.325Z,21.17
2022-12-11T06:52:52.123Z,20.92
2022-12-11T06:55:18.705Z,21.67
2022-12-11T06:57:45.301Z,20.35
2022-12-11T07:00:12.789Z,20.95
2022-12-11T07:02:39.417Z,22.30
2022-12-11T07:05:06.859Z,18.55
2022-12-11T07:07:34.457Z,21.92
2022-12-11T07:10:07.676Z,22.13
2022-12-11T07:12:35.194Z,18.50
2022-12-11T07:15:01.801Z,21.40
2022-12-11T07:17:29.515Z,19.23
2022-12-11T07:19:56.258Z,19.63
2022-12-11T07:22:22.865Z,19.25
2022-12-11T07:24:49.564Z,18.10
2022-12-11T07:27:16.258Z,19.45
2022-12-11T07:29:42.901Z,20.92
2022-12-11T07:32:09.780Z,19.35
2022-12-11T07:34:36.711Z,21.08
2022-12-11T07:37:03.779Z,52.60
2022-12-11T07:39:30.365Z,80.97
2022-12-11T07:41:56.993Z,104.82
2022-12-11T07:44:23.767Z,65.18
2022-12-11T07:46:50.428Z,95.78
2022-12-11T07:49:16.997Z,75.00
2022-12-11T07:51:43.659Z,33.22
2022-12-11T07:54:16.764Z,38.28
2022-12-11T07:56:46.492Z,23.35
2022-12-11T07:59:16.829Z,19.85
2022-12-11T08:01:43.676Z,20.45
2022-12-11T08:04:11.865Z,24.00
2022-12-11T08:06:40.162Z,26.77
2022-12-11T08:09:10.515Z,24.30
2022-12-11T08:11:38.471Z,18.23
2022-12-11T08:14:06.767Z,16.45
2022-12-11T08:16:33.608Z,16.67
2022-12-11T08:19:00.476Z,16.35
2022-12-11T08:21:28.510Z,20.60
2022-12-11T08:23:56.090Z,17.13
2022-12-11T08:26:26.137Z,15.77
2022-12-11T08:28:52.896Z,16.40
2022-12-11T08:31:21.294Z,15.95
2022-12-11T08:33:48.598Z,17.02
2022-12-11T08:36:18.357Z,15.82
2022-12-11T08:38:44.966Z,16.35
2022-12-11T08:41:16.953Z,15.45
2022-12-11T08:43:44.019Z,17.52
2022-12-11T08:46:11.744Z,15.63
2022-12-11T08:48:40.239Z,16.33
2022-12-11T08:51:11.228Z,17.50
2022-12-11T08:53:38.934Z,16.00
2022-12-11T08:56:08.600Z,14.65
2022-12-11T08:58:35.921Z,17.75
2022-12-11T09:01:10.982Z,16.67
2022-12-11T09:03:38.398Z,15.82
2022-12-11T09:06:07.420Z,15.65
2022-12-11T09:08:34.339Z,15.05
2022-12-11T09:11:10.173Z,16.95
2022-12-11T09:13:38.814Z,16.27
2022-12-11T09:16:08.016Z,17.23
2022-12-11T09:18:34.804Z,16.35
2022-12-11T09:21:10.785Z,18.20
2022-12-11T09:23:37.719Z,16.48
2022-12-11T09:26:06.149Z,15.77
2022-12-11T09:28:33.233Z,16.90
2022-12-11T09:30:59.944Z,17.25
2022-12-11T09:33:26.462Z,14.77
2022-12-11T09:35:59.826Z,15.02
2022-12-11T09:38:26.515Z,15.98
2022-12-11T09:40:54.039Z,14.35
2022-12-11T09:43:46.334Z,15.57
2022-12-11T09:46:15.461Z,17.52
2022-12-11T09:48:45.923Z,15.10
2022-12-11T09:51:28.122Z,16.20
2022-12-11T09:53:56.896Z,14.45
2022-12-11T09:56:36.638Z,15.90
2022-12-11T09:59:38.661Z,13.10
2022-12-11T10:02:43.672Z,17.42
2022-12-11T10:05:34.923Z,15.80
2022-12-11T10:08:30.988Z,17.23
2022-12-11T10:11:18.270Z,16.80
2022-12-11T10:13:57.310Z,19.65
2022-12-11T10:16:52.232Z,16.70
2022-12-11T10:19:24.522Z,19.88
2022-12-11T10:21:52.655Z,17.27
2022-12-11T10:27:31.309Z,15.15
2022-12-11T10:30:31.614Z,14.43
2022-12-11T10:33:22.831Z,15.32
2022-12-11T10:35:54.835Z,14.15
2022-12-11T10:38:30.176Z,15.60
2022-12-11T10:40:58.972Z,14.95
2022-12-11T10:43:37.601Z,15.23
2022-12-11T10:46:05.541Z,16.25
2022-12-11T10:48:32.154Z,14.90
2022-12-11T10:51:07.244Z,15.45
2022-12-11T10:53:34.878Z,15.10
2022-12-11T10:56:02.619Z,13.48
2022-12-11T10:58:33.991Z,14.27
2022-12-11T11:01:03.840Z,14.55
2022-12-11T11:03:30.672Z,14.38
2022-12-11T11:06:17.312Z,17.02
2022-12-11T11:08:52.730Z,15.88
2022-12-11T11:11:24.905Z,14.85
2022-12-11T11:13:52.024Z,13.65
2022-12-11T11:16:22.055Z,15.27
2022-12-11T11:18:55.073Z,13.73
2022-12-11T11:21:25.709Z,15.70
2022-12-11T11:23:54.044Z,15.25
2022-12-11T11:26:22.981Z,14.27
2022-12-11T11:28:52.408Z,15.40
2022-12-11T11:31:20.989Z,15.57
2022-12-11T11:34:08.565Z,15.70
2022-12-11T11:36:36.979Z,15.70
2022-12-11T11:39:23.243Z,15.55
2022-12-11T11:42:00.491Z,14.88
2022-12-11T11:44:36.907Z,16.58
2022-12-11T11:47:42.585Z,14.52
2022-12-11T11:50:18.344Z,16.77
2022-12-11T11:53:11.057Z,16.00
2022-12-11T11:55:51.871Z,17.23
2022-12-11T11:58:56.243Z,17.02
2022-12-11T12:01:23.639Z,18.05
2022-12-11T12:03:51.920Z,16.45
2022-12-11T12:06:48.964Z,15.18
2022-12-11T12:09:45.988Z,14.00
2022-12-11T12:12:39.463Z,14.82
2022-12-11T12:15:21.917Z,12.98
2022-12-11T12:18:37.986Z,13.90
2022-12-11T12:21:26.885Z,14.52
2022-12-11T12:24:22.476Z,13.02
2022-12-11T12:26:57.463Z,14.68
2022-12-11T12:29:56.805Z,13.23
2022-12-11T12:33:04.691Z,12.38
2022-12-11T12:35:40.150Z,13.50
2022-12-11T12:38:14.543Z,13.55
2022-12-11T12:44:21.039Z,13.00
2022-12-11T12:46:57.385Z,14.07
2022-12-11T12:49:42.868Z,13.65
2022-12-11T12:52:20.845Z,12.55
2022-12-11T12:55:11.376Z,11.02
2022-12-11T12:57:40.107Z,12.77
2022-12-11T13:00:13.065Z,12.07
2022-12-11T13:02:51.102Z,12.88
2022-12-11T13:05:33.343Z,12.48
2022-12-11T13:08:04.547Z,13.23
2022-12-11T13:10:34.932Z,14.65
2022-12-11T13:13:03.789Z,14.30
2022-12-11T13:15:48.569Z,13.48
2022-12-11T13:18:36.555Z,15.25
2022-12-11T13:21:29.787Z,13.60
2022-12-11T13:24:14.033Z,13.23
2022-12-11T13:26:41.195Z,13.85
2022-12-11T13:29:53.703Z,12.88
2022-12-11T13:32:24.324Z,13.75
2022-12-11T13:34:55.456Z,13.43
2022-12-11T13:37:34.812Z,14.75
2022-12-11T13:40:06.004Z,14.15
2022-12-11T13:42:36.040Z,13.70
2022-12-11T13:45:04.275Z,12.70
2022-12-11T13:47:32.235Z,14.18
2022-12-11T13:50:20.809Z,15.13
2022-12-11T13:52:58.760Z,14.13
2022-12-11T13:55:34.060Z,13.27
2022-12-11T13:58:01.076Z,13.25
2022-12-11T14:00:30.415Z,13.32
2022-12-11T14:03:01.152Z,13.50
2022-12-11T14:05:28.503Z,13.82
2022-12-11T14:08:02.918Z,15.43
2022-12-11T14:10:32.897Z,13.55
2022-12-11T14:13:06.043Z,14.13
2022-12-11T14:15:35.558Z,14.80
2022-12-11T14:18:04.183Z,14.00
2022-12-11T14:20:33.897Z,15.25
2022-12-11T14:23:18.055Z,13.55
2022-12-11T14:25:58.753Z,13.32
2022-12-11T14:28:27.855Z,14.75
2022-12-11T14:30:59.683Z,13.00
2022-12-11T14:33:32.087Z,12.98
2022-12-11T14:35:59.849Z,13.52
2022-12-11T14:38:43.371Z,12.82
2022-12-11T14:41:27.360Z,14.75
2022-12-11T14:43:59.168Z,13.82
2022-12-11T14:46:43.866Z,13.75
2022-12-11T14:49:34.420Z,15.18
2022-12-11T14:52:01.780Z,13.70
2022-12-11T14:54:36.536Z,14.05
2022-12-11T14:57:06.627Z,14.65
2022-12-11T14:59:40.542Z,15.00
2022-12-11T15:02:33.482Z,15.60
2022-12-11T15:05:12.404Z,13.77
2022-12-11T15:07:41.131Z,14.27
2022-12-11T15:10:20.889Z,15.65
2022-12-11T15:12:47.569Z,16.17
2022-12-11T15:15:15.686Z,15.38
2022-12-11T15:17:42.742Z,16.75
2022-12-11T15:20:20.008Z,15.85
2022-12-11T15:22:46.659Z,15.60
2022-12-11T15:25:25.078Z,16.63
2022-12-11T15:27:55.516Z,14.88
2022-12-11T15:30:32.907Z,15.55
2022-12-11T15:33:11.444Z,16.42
2022-12-11T15:35:40.328Z,15.80
2022-12-11T15:38:24.901Z,16.88
2022-12-11T15:40:51.457Z,16.38
2022-12-11T15:43:18.000Z,15.57
2022-12-11T15:45:44.704Z,15.82
2022-12-11T15:48:11.423Z,15.43
2022-12-11T15:50:37.994Z,16.38
2022-12-11T15:53:04.732Z,15.55
2022-12-11T15:55:34.914Z,16.75
2022-12-11T15:58:05.895Z,15.45
2022-12-11T16:00:32.507Z,15.98
2022-12-11T16:02:59.232Z,17.00
2022-12-11T16:05:26.815Z,15.75
2022-12-11T16:07:59.506Z,16.48
2022-12-11T16:10:27.178Z,17.80
2022-12-11T16:12:56.645Z,17.00
2022-12-11T16:15:24.338Z,17.08
2022-12-11T16:18:05.976Z,16.35
2022-12-11T16:20:33.642Z,17.92
2022-12-11T16:23:00.474Z,18.80
2022-12-11T16:25:28.050Z,16.13
2022-12-11T16:27:59.861Z,17.40
2022-12-11T16:30:27.925Z,18.00
2022-12-11T16:32:54.864Z,18.90
2022-12-11T16:35:22.557Z,18.48
2022-12-11T16:37:50.919Z,18.25
2022-12-11T16:40:18.101Z,17.42
2022-12-11T16:42:44.791Z,18.58
2022-12-11T16:45:14.850Z,18.42
2022-12-11T16:47:41.666Z,19.75
2022-12-11T16:50:09.025Z,17.52
2022-12-11T16:52:35.768Z,18.77
2022-12-11T16:55:02.371Z,19.05
2022-12-11T16:57:28.903Z,18.30
2022-12-11T16:59:55.438Z,18.63
2022-12-11T17:02:22.367Z,18.52
2022-12-11T17:04:53.638Z,19.50
2022-12-11T17:07:20.720Z,18.27
2022-12-11T17:09:47.464Z,18.50
2022-12-11T17:12:13.998Z,19.40
2022-12-11T17:14:40.717Z,17.90
2022-12-11T17:17:07.390Z,19.35
2022-12-11T17:19:33.988Z,19.42
2022-12-11T17:22:00.660Z,19.80
2022-12-11T17:24:27.399Z,19.08
2022-12-11T17:26:55.460Z,19.38
2022-12-11T17:29:22.180Z,18.58
2022-12-11T17:31:48.748Z,19.13
2022-12-11T17:34:15.954Z,18.73
2022-12-11T17:36:42.729Z,17.58
2022-12-11T17:39:09.304Z,18.17
2022-12-11T17:41:35.859Z,17.73
2022-12-11T17:44:02.574Z,17.17
2022-12-11T17:46:29.288Z,18.90
2022-12-11T17:48:56.714Z,16.25
2022-12-11T17:51:24.582Z,17.42
2022-12-11T17:53:52.695Z,16.02
2022-12-11T17:56:19.652Z,16.50
2022-12-11T17:58:46.384Z,14.65
2022-12-11T18:01:13.402Z,15.27
2022-12-11T18:03:40.846Z,14.32
2022-12-11T18:06:10.847Z,16.08
2022-12-11T18:08:38.143Z,13.98
2022-12-11T18:11:13.951Z,12.70
2022-12-11T18:13:41.198Z,14.70
2022-12-11T18:16:17.874Z,13.95
2022-12-11T18:18:46.180Z,13.88
2022-12-11T18:21:15.235Z,14.88
2022-12-11T18:23:41.980Z,14.10
2022-12-11T18:26:08.676Z,14.93
2022-12-11T18:28:35.260Z,14.32
2022-12-11T18:31:03.491Z,15.55
2022-12-11T18:33:32.163Z,21.25
2022-12-11T18:35:58.762Z,25.98
2022-12-11T18:38:25.479Z,20.60
2022-12-11T18:40:52.123Z,17.50
2022-12-11T18:43:18.714Z,20.10
2022-12-11T18:45:45.647Z,36.20
2022-12-11T18:48:13.411Z,36.97
2022-12-11T18:50:48.403Z,22.40
2022-12-11T18:53:15.419Z,24.98
2022-12-11T18:55:45.027Z,19.02
2022-12-11T18:58:12.884Z,26.08
2022-12-11T19:00:40.750Z,20.25
2022-12-11T19:03:08.580Z,29.20
2022-12-11T19:05:36.232Z,30.58
2022-12-11T19:08:03.781Z,31.27
2022-12-11T19:10:30.394Z,48.22
2022-12-11T19:12:57.056Z,94.47
2022-12-11T19:15:24.336Z,124.50
2022-12-11T19:17:51.327Z,44.35
2022-12-11T19:20:47.399Z,21.90
2022-12-11T19:23:04.963Z,18.17
2022-12-11T19:25:32.062Z,16.88
2022-12-11T19:27:58.649Z,16.27
2022-12-11T19:30:25.219Z,17.75
2022-12-11T19:32:51.836Z,15.77
2022-12-11T19:35:18.387Z,13.93
2022-12-11T19:37:45.041Z,17.65
2022-12-11T19:40:11.784Z,16.05
2022-12-11T19:42:38.308Z,16.02
2022-12-11T19:45:05.434Z,16.33
2022-12-11T19:47:32.023Z,16.30
2022-12-11T19:49:58.615Z,16.30
2022-12-11T19:52:25.177Z,17.48
2022-12-11T19:54:51.775Z,16.13
2022-12-11T19:57:18.313Z,15.70
2022-12-11T19:59:44.970Z,15.73
2022-12-11T20:02:12.209Z,15.10
2022-12-11T20:04:38.803Z,14.15
2022-12-11T20:07:05.436Z,15.38
2022-12-11T20:09:33.646Z,14.50
2022-12-11T20:12:00.259Z,13.93
2022-12-11T20:14:26.926Z,15.15
2022-12-11T20:17:11.353Z,14.10
2022-12-11T20:19:40.040Z,14.27
2022-12-11T20:22:06.834Z,14.18
2022-12-11T20:24:33.561Z,12.45
2022-12-11T20:27:00.264Z,14.40
2022-12-11T20:29:26.958Z,13.18
2022-12-11T20:31:53.701Z,14.13
2022-12-11T20:34:20.404Z,13.88
2022-12-11T20:36:48.347Z,13.05
2022-12-11T20:39:15.648Z,14.32
2022-12-11T20:41:42.389Z,13.57
2022-12-11T20:44:08.965Z,12.43
2022-12-11T20:46:35.549Z,12.40
2022-12-11T20:49:02.110Z,12.90
2022-12-11T20:51:29.166Z,13.52
2022-12-11T20:53:59.677Z,12.77
2022-12-11T20:56:28.622Z,13.65
2022-12-11T20:58:55.721Z,13.45
2022-12-11T21:01:25.344Z,12.82
2022-12-11T21:03:53.526Z,13.40
2022-12-11T21:06:31.526Z,13.40
2022-12-11T21:09:05.475Z,12.00
2022-12-11T21:11:32.044Z,14.27
2022-12-11T21:13:58.636Z,12.05
2022-12-11T21:16:25.485Z,12.38
2022-12-11T21:18:52.147Z,12.98
2022-12-11T21:21:18.812Z,13.65
2022-12-11T21:23:45.365Z,11.30
2022-12-11T21:26:12.699Z,12.80
2022-12-11T21:28:39.330Z,12.23
2022-12-11T21:31:11.399Z,11.38
2022-12-11T21:33:38.010Z,12.88
2022-12-11T21:36:06.230Z,15.40
2022-12-11T21:38:33.399Z,12.27
2022-12-11T21:41:10.224Z,11.48
2022-12-11T21:43:43.385Z,16.98
2022-12-11T21:46:26.134Z,12.18
2022-12-11T21:48:52.881Z,10.30
2022-12-11T21:51:29.673Z,9.65
2022-12-11T21:53:59.210Z,9.90
2022-12-11T21:56:28.339Z,9.48
2022-12-11T21:58:55.419Z,9.30
2022-12-11T22:01:29.227Z,11.07
2022-12-11T22:03:56.104Z,8.40
2022-12-11T22:06:22.915Z,9.68
2022-12-11T22:08:50.427Z,9.43
2022-12-11T22:11:21.686Z,10.40
2022-12-11T22:13:49.341Z,11.25
2022-12-11T22:16:16.054Z,12.93
2022-12-11T22:18:42.630Z,11.57
2022-12-11T22:21:09.341Z,11.05
2022-12-11T22:23:38.346Z,12.35
2022-12-11T22:26:09.665Z,12.68
2022-12-11T22:28:36.214Z,11.50
2022-12-11T22:31:02.830Z,11.52
2022-12-11T22:33:29.593Z,10.32
2022-12-11T22:35:58.300Z,9.18
2022-12-11T22:38:26.119Z,10.52
2022-12-11T22:40:53.893Z,11.65
2022-12-11T22:43:20.805Z,10.10
2022-12-11T22:45:47.643Z,10.02
2022-12-11T22:48:14.328Z,10.77
2022-12-11T22:50:41.617Z,10.35
2022-12-11T22:53:08.509Z,9.40
2022-12-11T22:55:38.764Z,10.07
2022-12-11T22:58:05.455Z,10.13
2022-12-11T23:00:32.034Z,10.18
2022-12-11T23:02:58.843Z,10.48
2022-12-11T23:05:25.503Z,10.52
2022-12-11T23:07:52.274Z,10.55
2022-12-11T23:10:19.447Z,11.32
2022-12-11T23:12:46.069Z,10.73
2022-12-11T23:15:13.208Z,10.45
2022-12-11T23:17:40.025Z,11.07
2022-12-11T23:20:07.388Z,12.23
2022-12-11T23:22:34.134Z,9.98
2022-12-11T23:25:00.995Z,11.65
2022-12-11T23:27:28.055Z,12.05
2022-12-11T23:29:55.256Z,11.38
2022-12-11T23:32:22.502Z,10.52
2022-12-11T23:34:49.057Z,9.90
2022-12-11T23:37:15.676Z,10.57
2022-12-11T23:39:42.453Z,8.80
2022-12-11T23:42:09.434Z,9.02
2022-12-11T23:44:36.265Z,8.93
2022-12-11T23:47:02.868Z,9.57
2022-12-11T23:49:30.094Z,10.00
2022-12-11T23:51:56.759Z,9.30
2022-12-11T23:54:23.264Z,9.80
2022-12-11T23:56:50.096Z,10.15
2022-12-11T23:59:16.933Z,10.27
